AirNav   BOSE A20 Aviation Headset
 
 762 users online  

1M9 Lake Barkley State Park Airport
Cadiz, Kentucky, USA

GOING TO CADIZ?


FAA INFORMATION EFFECTIVE 24 MAY 2018

Location

FAA Identifier: 1M9
Lat/Long: 36-49-04.0850N / 087-54-27.0600W
36-49.068083N / 087-54.451000W
36.8178014 / -87.9075167
(estimated)
Elevation: 570.9 ft. / 174.0 m (surveyed)
Variation: 00E (1985)
From city: 4 miles SW of CADIZ, KY
Time zone: UTC -5 (UTC -6 during Standard Time)
Zip code: 42211

Airport Operations

Airport use: Open to the public
Activation date: 08/1980
Control tower: no
ARTCC: MEMPHIS CENTER
FSS: LOUISVILLE FLIGHT SERVICE STATION
NOTAMs facility: LOU (NOTAM-D service available)
Attendance: UNATNDD
Wind indicator: lighted
Segmented circle: yes
Lights: ACTVT REIL RY 2.20; PAPI RY 2/22; MIRL RY 2/20 - CTAF.
Beacon: white-green (lighted land airport)
Operates sunset to sunrise.

Airport Communications

CTAF/UNICOM: 123.0

Nearby radio navigation aids

VOR radial/distance  VOR name  Freq  Var
CKVr297/26.5CLARKSVILLE VOR/DME110.6001W

Airport Services

Parking: tiedowns
Airframe service: NONE
Powerplant service: NONE
Bottled oxygen: NONE
Bulk oxygen: NONE

Runway Information

Runway 2/20

Dimensions: 4800 x 100 ft. / 1463 x 30 m
Surface: asphalt, in good condition
Weight bearing capacity: 
Single wheel: 30.0
Runway edge lights: medium intensity
Gradient: N
RUNWAY 2  RUNWAY 20
Latitude: 36-48.697500N36-49.438667N
Longitude: 087-54.622333W087-54.279667W
Elevation: 549.0 ft.571.0 ft.
Gradient: 0.5% UP
Traffic pattern: leftleft
Declared distances: TORA:4800 TODA:4800 ASDA:4700 LDA:4600TORA:4800 TODA:4800 ASDA:4700 LDA:4600
Markings: nonprecision, in fair conditionnonprecision, in fair condition
Visual slope indicator: 2-light PAPI on left (3.00 degrees glide path)2-light PAPI on left (3.00 degrees glide path)
Runway end identifier lights: yesyes
Obstructions: 14 ft. trees, 209 ft. from runway, 23 ft. right of centerline, 1:1 slope to clear
TREES 0' FROM RWY END, 150' LEFT
33 ft. trees, 250 ft. from runway, 145 ft. right of centerline, 1:1 slope to clear
TREES 0' FROM RWY END, 155' RIGHT

Airport Ownership and Management from official FAA records

Ownership: Publicly-owned
Owner: KY DEPT OF PARKS
CAPITAL PLAZA TOWER
FRANKFORT, KY 40601
Phone 502-564-2172
Manager: DAVID MILLER
3500 STATE PARK ROAD HWY 68
CADIZ, KY 42211
Phone 270-924-1131

Airport Operational Statistics

Aircraft operations: avg 40/day *
51% military
37% transient general aviation
10% local general aviation
1% air taxi
* for 12-month period ending 10 October 2016

Additional Remarks

TRANSPORTATION TO PARK LODGE AVAIL 270-924-1131
DEER & BIRDS ON & INVOF ARPT.

Instrument Procedures

There are no published instrument procedures at 1M9.

Some nearby airports with instrument procedures:

2M0 - Princeton-Caldwell County Airport (18 nm N)
KHOP - Campbell Army Airfield (Fort Campbell) (22 nm SE)
KHVC - Hopkinsville-Christian County Airport (22 nm E)
KCEY - Kyle-Oakley Field Airport (24 nm W)
KEOD - Sabre Army Airfield (Fort Campbell) (25 nm SE)
 
Loc | Ops | Rwys | IFR | FBO | Links
Com | Nav | Svcs | Stats | Notes

AirNav Hotels Sweepstakes
 
Area around 1M9 (Lake Barkley State Park Airport)
 
Road maps at: MapQuest Bing Google
 
Aerial photo
WARNING: Photo may not be current or correct
Aerial photo of 1M9 (Lake Barkley State Park Airport)
Photo taken 03-Mar-2018
looking northeast.

Do you have a better or more recent aerial photo of Lake Barkley State Park Airport that you would like to share? If so, please send us your photo.

 
Sectional chart

 
Airport distance calculator
Flying to Lake Barkley State Park Airport? Find the distance to fly.

From to 1M9

Sunrise and sunset
Times for 26-May-2018
 Local
(UTC-5)
 Zulu
(UTC)
Morning civil twilight05:0810:08
Sunrise05:3810:38
Sunset20:0001:00
Evening civil twilight20:2901:29

Current date and time
Zulu (UTC)  26-May-2018 23:39:59
Local (UTC-5)  26-May-2018 18:39:59
 
METAR
KHOP 
22nm SE 
262256Z AUTO 18006KT 10SM CLR 27/22 A2982 RMK AO2 SLP095 T02720219
KCEY 
24nm W 
262315Z AUTO 22006KT 10SM CLR 29/20 A2982 RMK AO1
KEOD 
25nm SE 
262258Z AUTO 18008KT 10SM CLR 27/21 A2982 RMK AO2 SLP095 T02700205
KCKV 
27nm SE 
262252Z AUTO 17005KT 10SM CLR 27/20 A2982 RMK AO2 SLP092 T02670200 $
K5M9 
33nm N 
262315Z AUTO 22003KT 10SM CLR 29/20 A2981 RMK AO2 T02860198
KM25 
33nm W 
262315Z AUTO 18004KT 10SM BKN040 BKN047 BKN050 29/21 A2981 RMK AO2 PWINO
KPHT 
37nm SW 
262315Z AUTO 18004KT 10SM CLR 28/21 A2982 RMK A01
K2I0 
40nm NE 
262315Z AUTO 24008KT 10SM SCT040 29/21 A2980 RMK AO2 T02930209
TAF
KHOP 
22nm SE 
261925Z 2619/2722 18009KT 9999 SCT025 SCT200 QNH2984INS TEMPO 2621/2623 21010G15KT 6000 -TSRA SCT010 OVC025CB BECMG 2700/2701 18006KT 9999 SCT030 QNH2985INS TEMPO 2713/2714 09015G25KT -TSRA OVC025CB BECMG 2714/2715 16006KT 9999 SCT030 QNH2990INS TX29/2621Z TN21/2711Z
KCKV 
27nm SE 
261832Z 2619/2718 22006KT P6SM VCTS SCT035CB FM270000 18004KT P6SM SCT120 FM271600 15004KT P6SM SCT040
NOTAMs
Click for the latest NOTAMs
NOTAMs are issued by the DoD/FAA and will open in a separate window not controlled by AirNav.

 

 
 

Would you like to see your business listed on this page?

 If your business provides an interesting product or service to pilots, flight crews, aircraft, or users of the Lake Barkley State Park Airport, you should consider listing it here.  To start the listing process, click on the button below
 
Add a business
 

Other Pages about Lake Barkley State Park Airport

Update a link
 
Copyright © AirNav, LLC. All rights reserved. Privacy Policy  Contact